Aviation Digital Data Service (ADDS)

Output produced by TAFs form (1909 UTC 24 April 2017)
found at http://aviationweather.gov/adds/tafs/
 
KEGE 241904Z 2419/2518 32010G18KT P6SM VCSH FEW050 BKN080 
     FM242100 24015G26KT P6SM VCSH OVC060 
     FM250000 23013G22KT 6SM -SHRA OVC060 
     FM250700 24005KT 6SM -SHRASN OVC045 
     FM251000 VRB03KT 6SM -SHSNRA OVC045 
     FM251200 VRB03KT P6SM OVC035